Thunder radar more information blitzortung!


Radar de pluja more information rain snow radar


Visita la nostra xarxa de llocs de meteo:

Template documentation
and downloads

And another site



No particular awareness of the weather is required.    There are no Weather-warnings

Pagina Historial Weather Underground text

Diari Resum Juliol 10, 2017 Unitats:  Mètric    Imperial   Tant
« Previous Dia
SegĂźent Dia »
Diari Setmana Mensual Anual Personalitzada
  Maxima: Minima: Media:
Temperatura: -17.8 °C -6.8 °C -3 °C
Punt de rosada: -17.8 °C -10.9 °C -9.1 °C
Humitat: Humidity % 33 % 53 %
Wind Speed: 0 km/h 0 km/h 11.4 km/h
RĂ fegues de vent: 0 km/h - -
Vent:- - SE
Pression baro: 0 hPa 34198.6 hPa -
Precipitacions: 0 mm    
Historical Graphs
 
 
Dades de taula per Juliol 10, 2017
Temps Temperatura Punt de rosada Pression baro Vent Wind Speed RĂ fegues de vent Humitat Rainfall Rate (Hourly)
-17.8 °C -17.8 °C 0 hPa Calm     Humidity % 0 mm
00:00 -6.4 °C -8.1 °C 34256.2 hPa Calm   5.1 km/h 83 % 0 mm
00:04 -5.2 °C -7.7 °C 34256.2 hPa ENE 6 km/h 6 km/h 76 % 0 mm
00:10 -6.4 °C -8.1 °C 34256.2 hPa NE 2.6 km/h 5.1 km/h 83 % 0 mm
00:20 -6.5 °C -8.2 °C 34256.2 hPa NE 2.6 km/h 5.1 km/h 83 % 0 mm
00:30 -6.6 °C -8.2 °C 34256.2 hPa NE 2.6 km/h 7.7 km/h 83 % 0 mm
00:40 -6.6 °C -8.2 °C 34256.2 hPa NE 5.1 km/h 7.7 km/h 83 % 0 mm
00:50 -6.6 °C -8.3 °C 34256.2 hPa Calm   2.6 km/h 83 % 0 mm
01:00 -6.7 °C -8.3 °C 34256.2 hPa Calm   5.1 km/h 83 % 0 mm
01:10 -6.7 °C -8.3 °C 34256.2 hPa ENE 5.1 km/h 5.1 km/h 83 % 0 mm
01:20 -6.7 °C -8.4 °C 34256.2 hPa NE 5.1 km/h 7.7 km/h 82 % 0 mm
01:30 -6.7 °C -8.4 °C 34256.2 hPa North 2.6 km/h 7.7 km/h 82 % 0 mm
01:40 -6.7 °C -8.4 °C 34256.2 hPa Calm   5.1 km/h 83 % 0 mm
01:50 -6.8 °C -8.4 °C 34256.2 hPa NNE 2.6 km/h 5.1 km/h 83 % 0 mm
02:00 -6.8 °C -8.4 °C 34256.2 hPa ENE 2.6 km/h 5.1 km/h 83 % 0 mm
02:10 -6.7 °C -8.4 °C 34256.2 hPa NE 2.6 km/h 7.7 km/h 83 % 0 mm
02:20 -6.7 °C -8.4 °C 34256.2 hPa NE 2.6 km/h 5.1 km/h 82 % 0 mm
02:30 -6.7 °C -8.4 °C 34256.2 hPa NE 2.6 km/h 5.1 km/h 82 % 0 mm
02:40 -6.6 °C -8.3 °C 34256.2 hPa NE 2.6 km/h 5.1 km/h 82 % 0 mm
02:50 -6.3 °C -8.1 °C 34256.2 hPa NE 2.6 km/h 7.7 km/h 82 % 0 mm
03:00 -6.1 °C -8.1 °C 34256.2 hPa NE 2.6 km/h 2.6 km/h 80 % 0 mm
03:10 -6.1 °C -8.2 °C 34256.2 hPa NE 5.1 km/h 7.7 km/h 79 % 0 mm
03:20 -5.6 °C -7.8 °C 34256.2 hPa NNE 2.6 km/h 7.7 km/h 78 % 0 mm
03:30 -5.6 °C -8 °C 34256.2 hPa NE 7.7 km/h 10.3 km/h 76 % 0 mm
03:40 -5.5 °C -7.9 °C 34256.2 hPa NE 7.7 km/h 12.9 km/h 76 % 0 mm
03:50 -4.8 °C -7.7 °C 34256.2 hPa NNE 5.1 km/h 12.9 km/h 73 % 0 mm
04:00 -5.1 °C -8 °C 34256.2 hPa NNE 12.9 km/h 12.9 km/h 72 % 0 mm
04:10 -5.1 °C -7.9 °C 34256.2 hPa NNE 2.6 km/h 7.7 km/h 73 % 0 mm
04:20 -5 °C -7.9 °C 34256.2 hPa NNE 7.7 km/h 10.3 km/h 72 % 0 mm
04:30 -4.9 °C -7.9 °C 34293.4 hPa NNE 2.6 km/h 5.1 km/h 72 % 0 mm
04:40 -4.7 °C -7.9 °C 34293.4 hPa NNE 2.6 km/h 5.1 km/h 70 % 0 mm
04:50 -4.6 °C -7.8 °C 34293.4 hPa Calm   5.1 km/h 70 % 0 mm
05:00 -4.6 °C -7.8 °C 34293.4 hPa West 2.6 km/h 2.6 km/h 70 % 0 mm
10:03 -4.4 °C -7.8 °C 34293.4 hPa ESE 6 km/h   69 % 0 mm
10:08 -4.3 °C -7.8 °C 34293.4 hPa SW 4.2 km/h 4.2 km/h 68 % 0 mm
10:13 -4.1 °C -7.6 °C 34293.4 hPa SW 6 km/h 6 km/h 68 % 0 mm
10:18 -4 °C -7.5 °C 34293.4 hPa WSW 6 km/h 6 km/h 68 % 0 mm
10:23 -4.2 °C -7.7 °C 34293.4 hPa WSW 6.3 km/h 6.3 km/h 68 % 0 mm
10:28 -4.1 °C -7.6 °C 34293.4 hPa SE 9.8 km/h 9.8 km/h 68 % 0 mm
10:33 -3.9 °C -7.4 °C 34293.4 hPa SE 6.8 km/h 6.8 km/h 68 % 0 mm
10:38 -3.8 °C -7.6 °C 34293.4 hPa SE 11.9 km/h 11.9 km/h 66 % 0 mm
10:43 -3.8 °C -7.7 °C 34293.4 hPa ESE 9 km/h 9 km/h 65 % 0 mm
10:48 -3.7 °C -7.7 °C 34293.4 hPa NNE 15 km/h 15 km/h 64 % 0 mm
10:53 -3.4 °C -7.4 °C 34293.4 hPa ENE 12.7 km/h 12.7 km/h 65 % 0 mm
10:58 -3.3 °C -7.4 °C 34293.4 hPa ENE 9.8 km/h 9.8 km/h 64 % 0 mm
11:03 -3.4 °C -7.6 °C 34293.4 hPa WNW 15 km/h 15 km/h 63 % 0 mm
11:08 -3.3 °C -7.7 °C 34293.4 hPa ENE 11.9 km/h 11.9 km/h 62 % 0 mm
11:13 -3.1 °C -7.4 °C 34293.4 hPa West 6 km/h 6.3 km/h 62 % 0 mm
11:18 -2.8 °C -7.4 °C 34293.4 hPa NE 7.6 km/h 7.6 km/h 61 % 0 mm
11:23 -2.8 °C -7.5 °C 34293.4 hPa South 9 km/h 9.3 km/h 60 % 0 mm
11:28 -2.7 °C -7.6 °C 34293.4 hPa ESE 6.3 km/h 6.3 km/h 59 % 0 mm
11:33 -2.5 °C -7.3 °C 34293.4 hPa SSW 9 km/h 9 km/h 59 % 0 mm
11:38 -2.4 °C -7.3 °C 34256.2 hPa ENE 6.3 km/h 6.3 km/h 59 % 0 mm
11:43 -2.8 °C -7.6 °C 34256.2 hPa ENE 15 km/h 15 km/h 59 % 0 mm
11:48 -2.7 °C -7.6 °C 34256.2 hPa ENE 15 km/h 15 km/h 59 % 0 mm
11:53 -2.5 °C -7.5 °C 34256.2 hPa SE 20.9 km/h 20.9 km/h 58 % 0 mm
11:58 -2.3 °C -7.4 °C 34256.2 hPa SE 17.9 km/h 17.9 km/h 57 % 0 mm
12:03 -2.2 °C -7.5 °C 34256.2 hPa East 9 km/h 9 km/h 56 % 0 mm
12:08 -2.2 °C -7.7 °C 34256.2 hPa NE 15 km/h 15 km/h 55 % 0 mm
12:13 -2.3 °C -7.8 °C 34256.2 hPa East 9 km/h 9 km/h 55 % 0 mm
12:18 -2.3 °C -7.8 °C 34256.2 hPa ENE 12.2 km/h 12.2 km/h 55 % 0 mm
12:23 -2.1 °C -7.8 °C 34256.2 hPa ESE 9 km/h 9 km/h 54 % 0 mm
12:28 -2.1 °C -7.8 °C 34256.2 hPa ESE 23.8 km/h 23.8 km/h 54 % 0 mm
12:33 -2.2 °C -7.8 °C 34256.2 hPa NE 17.9 km/h 17.9 km/h 54 % 0 mm
12:38 -1.9 °C -7.6 °C 34256.2 hPa ESE 26.9 km/h 26.9 km/h 54 % 0 mm
12:43 -1.9 °C -7.6 °C 34256.2 hPa ESE 20.9 km/h 20.9 km/h 54 % 0 mm
12:48 -1.8 °C -7.7 °C 34256.2 hPa East 29.8 km/h 29.8 km/h 53 % 0 mm
12:53 -1.9 °C -7.8 °C 34256.2 hPa East 41.7 km/h 41.7 km/h 53 % 0 mm
12:58 -1.8 °C -7.7 °C 34256.2 hPa ESE 23.8 km/h 23.8 km/h 53 % 0 mm
13:03 -1.7 °C -7.7 °C 34256.2 hPa SSE 32.8 km/h 32.8 km/h 52 % 0 mm
13:08 -1.7 °C -7.9 °C 34256.2 hPa ESE 17.9 km/h 17.9 km/h 51 % 0 mm
13:13 -1.8 °C -7.8 °C 34256.2 hPa ESE 26.4 km/h 26.4 km/h 52 % 0 mm
13:18 -1.8 °C -7.8 °C 34256.2 hPa ESE 22 km/h 22 km/h 52 % 0 mm
13:23 -1.8 °C -7.8 °C 34256.2 hPa East 26.9 km/h 26.9 km/h 52 % 0 mm
13:28 -1.8 °C -7.8 °C 34256.2 hPa East 32.8 km/h 32.8 km/h 52 % 0 mm
13:33 -1.7 °C -7.7 °C 34256.2 hPa East 26.9 km/h 26.9 km/h 52 % 0 mm
13:38 -1.8 °C -7.9 °C 34256.2 hPa South 32.8 km/h 32.8 km/h 51 % 0 mm
13:43 -1.2 °C -7.7 °C 34256.2 hPa WNW 11.9 km/h 11.9 km/h 49 % 0 mm
13:48 -0.5 °C -7.9 °C 34256.2 hPa SW 9 km/h 9 km/h 45 % 0 mm
13:53 -0.7 °C -7.7 °C 34222.3 hPa East 15 km/h 15 km/h 47 % 0 mm
13:58 -1 °C -7.9 °C 34222.3 hPa ESE 26.9 km/h 26.9 km/h 47 % 0 mm
14:03 -1.2 °C -8 °C 34222.3 hPa ESE 27.2 km/h 27.2 km/h 48 % 0 mm
14:08 -1.3 °C -8.1 °C 34256.2 hPa SSE 29.8 km/h 29.8 km/h 48 % 0 mm
14:13 -0.9 °C -7.9 °C 34256.2 hPa SSE 26.9 km/h 26.9 km/h 47 % 0 mm
14:18 -0.7 °C -7.6 °C 34256.2 hPa East 19.6 km/h 19.6 km/h 48 % 0 mm
14:23 -0.9 °C -7.9 °C 34222.3 hPa ESE 26.9 km/h 26.9 km/h 47 % 0 mm
14:28 -0.4 °C -7.9 °C 34222.3 hPa SW 9 km/h 9 km/h 45 % 0 mm
14:33 -0.2 °C -7.8 °C 34222.3 hPa South 17.9 km/h 17.9 km/h 44 % 0 mm
14:38 -0.8 °C -7.8 °C 34222.3 hPa East 17.9 km/h 17.9 km/h 47 % 0 mm
14:43 -0.6 °C -8.2 °C 34222.3 hPa SW 23.8 km/h 23.8 km/h 44 % 0 mm
14:48 -0.1 °C -8.1 °C 34222.3 hPa SW 15 km/h 15 km/h 42 % 0 mm
14:53 0.3 °C -8 °C 34222.3 hPa SW 14.5 km/h 14.5 km/h 41 % 0 mm
14:58 0.2 °C -8.1 °C 34222.3 hPa SSW 15 km/h 15 km/h 41 % 0 mm
15:03 0.3 °C -8.2 °C 34222.3 hPa WSW 17.9 km/h 17.9 km/h 40 % 0 mm
15:08 0.3 °C -8.2 °C 34222.3 hPa WNW 15 km/h 15 km/h 40 % 0 mm
15:13 0.3 °C -8.4 °C 34222.3 hPa SW 23.8 km/h 23.8 km/h 39 % 0 mm
15:18 0.1 °C -8.7 °C 34222.3 hPa SSW 18.3 km/h 18.3 km/h 39 % 0 mm
15:23 0.3 °C -8.4 °C 34222.3 hPa SW 19.2 km/h 19.2 km/h 39 % 0 mm
15:28 0.2 °C -8.7 °C 34222.3 hPa SW 15 km/h 16.6 km/h 38 % 0 mm
15:33 0.2 °C -8.7 °C 34222.3 hPa SSW 17.9 km/h 17.9 km/h 38 % 0 mm
15:38 0.1 °C -8.9 °C 34222.3 hPa SSE 20.9 km/h 20.9 km/h 38 % 0 mm
15:43 0.2 °C -9 °C 34222.3 hPa South 11.9 km/h 11.9 km/h 37 % 0 mm
15:48 0.7 °C -8.6 °C 34222.3 hPa SSW 20.9 km/h 20.9 km/h 37 % 0 mm
15:53 0.1 °C -9.1 °C 34222.3 hPa West 6 km/h 8 km/h 37 % 0 mm
15:58 0 °C -9.2 °C 34222.3 hPa SSW 15 km/h 15 km/h 37 % 0 mm
16:03 0.2 °C -9 °C 34222.3 hPa SW 15.3 km/h 15.3 km/h 37 % 0 mm
16:08 0.2 °C -9.2 °C 34222.3 hPa SW 23.8 km/h 23.8 km/h 36 % 0 mm
16:13 0.3 °C -9.1 °C 34222.3 hPa West 15.3 km/h 15.3 km/h 36 % 0 mm
16:18 0.1 °C -9.8 °C 34222.3 hPa South 26.9 km/h 26.9 km/h 34 % 0 mm
16:23 0 °C -9.7 °C 34222.3 hPa SW 18.3 km/h 18.3 km/h 35 % 0 mm
16:28 0.1 °C -9.6 °C 34222.3 hPa WSW 11.9 km/h 12.2 km/h 35 % 0 mm
16:33 0.2 °C -9.4 °C 34222.3 hPa WSW 20.9 km/h 20.9 km/h 35 % 0 mm
16:38 0.1 °C -9.6 °C 34198.6 hPa ESE 15 km/h 15 km/h 35 % 0 mm
16:43 0.1 °C -9.6 °C 34198.6 hPa West 11.9 km/h 11.9 km/h 35 % 0 mm
16:48 0.2 °C -9.5 °C 34198.6 hPa SW 11.1 km/h 11.1 km/h 35 % 0 mm
16:53 -0.2 °C -10.1 °C 34198.6 hPa South 23.8 km/h 23.8 km/h 34 % 0 mm
16:58 -0.2 °C -9.8 °C 34198.6 hPa West 23.3 km/h 23.3 km/h 35 % 0 mm
17:03 -0.3 °C -9.9 °C 34198.6 hPa WSW 20.9 km/h 20.9 km/h 35 % 0 mm
17:08 -0.3 °C -9.9 °C 34222.3 hPa SW 11.9 km/h 11.9 km/h 35 % 0 mm
17:13 -0.4 °C -10.3 °C 34222.3 hPa SW 15.3 km/h 15.3 km/h 34 % 0 mm
17:18 -0.4 °C -10.2 °C 34222.3 hPa South 23.8 km/h 23.8 km/h 34 % 0 mm
17:23 -0.4 °C -10.1 °C 34198.6 hPa West 22 km/h 22 km/h 35 % 0 mm
17:28 -0.2 °C -9.8 °C 34198.6 hPa SSW 26.9 km/h 26.9 km/h 35 % 0 mm
17:33 -0.6 °C -10.4 °C 34198.6 hPa WSW 32.8 km/h 32.8 km/h 34 % 0 mm
17:38 -0.4 °C -10.3 °C 34198.6 hPa SSW 17.9 km/h 17.9 km/h 34 % 0 mm
17:43 -0.3 °C -10.2 °C 34198.6 hPa SW 17.9 km/h 17.9 km/h 34 % 0 mm
17:48 -0.4 °C -10.3 °C 34198.6 hPa SW 17.9 km/h 17.9 km/h 34 % 0 mm
17:53 -0.3 °C -10.2 °C 34198.6 hPa SW 22 km/h 22 km/h 34 % 0 mm
17:58 -0.4 °C -10.3 °C 34198.6 hPa SW 14.5 km/h 14.5 km/h 34 % 0 mm
18:03 -0.5 °C -10.3 °C 34198.6 hPa SSW 15 km/h 15 km/h 34 % 0 mm
18:08 -0.8 °C -10.9 °C 34198.6 hPa SW 26.9 km/h 26.9 km/h 33 % 0 mm
18:13 -0.9 °C -10.7 °C 34198.6 hPa SW 15.3 km/h 15.3 km/h 34 % 0 mm
18:18 -1.1 °C -10.8 °C 34198.6 hPa South 15.3 km/h 15.3 km/h 34 % 0 mm
18:23 -1.1 °C -10.8 °C 34198.6 hPa SW 9 km/h 9 km/h 34 % 0 mm
18:28 -1.1 °C -10.6 °C 34198.6 hPa SW 9 km/h 9 km/h 35 % 0 mm
18:33 -1.2 °C -10.7 °C 34198.6 hPa South 6 km/h 6.3 km/h 35 % 0 mm
18:38 -1.2 °C -10.4 °C 34198.6 hPa SSW 3.1 km/h   36 % 0 mm
18:43 -1.3 °C -10.5 °C 34198.6 hPa WSW 11.9 km/h 11.9 km/h 36 % 0 mm
18:48 -1.5 °C -10.7 °C 34198.6 hPa WSW 9 km/h 9 km/h 36 % 0 mm
18:53 -1.5 °C -10.7 °C 34198.6 hPa SW 11.9 km/h 11.9 km/h 36 % 0 mm
18:58 -1.6 °C -10.6 °C 34198.6 hPa SW 17.9 km/h 17.9 km/h 37 % 0 mm
19:03 -1.7 °C -10.7 °C 34198.6 hPa SW 11.9 km/h 11.9 km/h 37 % 0 mm
19:08 -1.7 °C -10.4 °C 34222.3 hPa SSW 9.3 km/h 9.3 km/h 38 % 0 mm
19:13 -1.8 °C -10.3 °C 34222.3 hPa West 15 km/h 15 km/h 39 % 0 mm
19:18 -2 °C -10.5 °C 34222.3 hPa SSW 15.3 km/h 15.3 km/h 39 % 0 mm
19:23 -2.1 °C -10.4 °C 34222.3 hPa West 15 km/h 15 km/h 40 % 0 mm
19:28 -2.2 °C -10.4 °C 34222.3 hPa WSW 11.1 km/h 11.1 km/h 40 % 0 mm
19:33 -2.4 °C -10.4 °C 34222.3 hPa WSW 20.9 km/h 20.9 km/h 41 % 0 mm
19:38 -2.6 °C -10.6 °C 34222.3 hPa WSW 23.8 km/h 23.8 km/h 41 % 0 mm
19:43 -2.6 °C -10.6 °C 34222.3 hPa South 20.9 km/h 20.9 km/h 41 % 0 mm
19:48 -2.7 °C -10.7 °C 34222.3 hPa WSW 15 km/h 15 km/h 41 % 0 mm
19:53 -2.8 °C -10.8 °C 34256.2 hPa WSW 20.9 km/h 20.9 km/h 41 % 0 mm
19:58 -2.9 °C -10.7 °C 34256.2 hPa WSW 20.9 km/h 20.9 km/h 42 % 0 mm
20:00 -5.1 °C -8.7 °C 34327.3 hPa NE 2.6 km/h 5.1 km/h 67 % 0 mm
20:03 -2.9 °C -10.7 °C 34256.2 hPa WSW 15 km/h 15 km/h 42 % 0 mm
20:08 -3 °C -10.8 °C 34256.2 hPa SW 15 km/h 15 km/h 42 % 0 mm
20:10 -5.1 °C -8.6 °C 34327.3 hPa NE 5.1 km/h 10.3 km/h 68 % 0 mm
20:13 -3.1 °C -10.6 °C 34256.2 hPa SW 10.3 km/h 10.3 km/h 43 % 0 mm
20:18 -3.1 °C -10.6 °C 34256.2 hPa West 17.9 km/h 17.9 km/h 43 % 0 mm
20:20 -5.2 °C -8.6 °C 34327.3 hPa NE 5.1 km/h 5.1 km/h 68 % 0 mm
20:23 -3 °C -10.6 °C 34256.2 hPa SSW 11.9 km/h 11.9 km/h 43 % 0 mm
20:28 -2.9 °C -10.3 °C 34256.2 hPa SW 9.3 km/h 9.3 km/h 44 % 0 mm
20:30 -5.2 °C -8.6 °C 34327.3 hPa NNE 5.1 km/h 7.7 km/h 69 % 0 mm
20:33 -3.1 °C -10.4 °C 34256.2 hPa SW 9 km/h 9 km/h 44 % 0 mm
20:38 -3.1 °C -10.4 °C 34256.2 hPa WSW 11.9 km/h 11.9 km/h 44 % 0 mm
20:40 -5.3 °C -8.4 °C 34327.3 hPa NNE 5.1 km/h 7.7 km/h 70 % 0 mm
20:43 -3.1 °C -10.4 °C 34256.2 hPa SW 9.8 km/h 9.8 km/h 44 % 0 mm
20:48 -3.2 °C -10.5 °C 34256.2 hPa South 15 km/h 15 km/h 44 % 0 mm
20:50 -5.3 °C -8.5 °C 34327.3 hPa NNE 5.1 km/h 7.7 km/h 70 % 0 mm
20:53 -3.2 °C -10.6 °C 34256.2 hPa West 11.9 km/h 11.9 km/h 44 % 0 mm
20:58 -3.3 °C -10.6 °C 34256.2 hPa SW 8 km/h 8 km/h 44 % 0 mm
21:00 -5.3 °C -8.3 °C 34327.3 hPa NE 5.1 km/h 7.7 km/h 72 % 0 mm
21:03 -3.3 °C -10.6 °C 34256.2 hPa SW 3.1 km/h 3.1 km/h 44 % 0 mm
21:08 -3.3 °C -10.4 °C 34256.2 hPa SW 3.1 km/h 3.1 km/h 45 % 0 mm
21:10 -5.4 °C -8.2 °C 34327.3 hPa NE 5.1 km/h 7.7 km/h 73 % 0 mm
21:13 -3.4 °C -10.5 °C 34256.2 hPa SSW 9 km/h 9 km/h 45 % 0 mm
21:18 -3.5 °C -10.6 °C 34256.2 hPa SW 9 km/h 9 km/h 45 % 0 mm
21:20 -5.4 °C -8.3 °C 34327.3 hPa NE 5.1 km/h 10.3 km/h 73 % 0 mm
21:23 -3.6 °C -10.7 °C 34256.2 hPa SW 6.3 km/h 6.3 km/h 45 % 0 mm
21:28 -3.6 °C -10.7 °C 34256.2 hPa West 6 km/h 6 km/h 45 % 0 mm
21:30 -5.4 °C -8.3 °C 34327.3 hPa NE 5.1 km/h 7.7 km/h 72 % 0 mm
21:33 -3.7 °C -10.8 °C 34256.2 hPa Calm     45 % 0 mm
21:39 -3.7 °C -10.8 °C 34293.4 hPa Calm     45 % 0 mm
21:40 -5.4 °C -8.3 °C 34327.3 hPa NE 5.1 km/h 12.9 km/h 72 % 0 mm
21:44 -3.8 °C -10.9 °C 34293.4 hPa West 6 km/h 6 km/h 45 % 0 mm
21:49 -3.8 °C -10.7 °C 34293.4 hPa West 5.6 km/h   46 % 0 mm
21:50 -5.4 °C -8.3 °C 34327.3 hPa NE 5.1 km/h 10.3 km/h 73 % 0 mm
21:54 -3.9 °C -10.8 °C 34256.2 hPa SW 6 km/h 6 km/h 46 % 0 mm
21:59 -3.9 °C -10.7 °C 34256.2 hPa SW 3.1 km/h 3.1 km/h 47 % 0 mm
22:00 -5.5 °C -8.2 °C 34327.3 hPa ENE 2.6 km/h 10.3 km/h 74 % 0 mm
22:04 -4.1 °C -10.8 °C 34256.2 hPa Calm     47 % 0 mm
22:09 -4.1 °C -10.7 °C 34256.2 hPa Calm     48 % 0 mm
22:10 -5.6 °C -8.2 °C 34327.3 hPa ENE 7.7 km/h 7.7 km/h 74 % 0 mm
22:14 -4.1 °C -10.7 °C 34256.2 hPa Calm     48 % 0 mm
22:19 -4.2 °C -10.7 °C 34256.2 hPa Calm     48 % 0 mm
22:20 -5.6 °C -8.2 °C 34361.1 hPa NE 5.1 km/h 7.7 km/h 75 % 0 mm
22:24 -4.2 °C -10.6 °C 34293.4 hPa Calm     49 % 0 mm
22:29 -4.2 °C -10.6 °C 34293.4 hPa Calm     49 % 0 mm
22:30 -5.7 °C -8.2 °C 34327.3 hPa NE 5.1 km/h 7.7 km/h 75 % 0 mm
22:34 -4.3 °C -10.6 °C 34293.4 hPa Calm     49 % 0 mm
22:39 -4.3 °C -10.6 °C 34327.3 hPa NNE 3.7 km/h   49 % 0 mm
22:40 -5.7 °C -8.2 °C 34327.3 hPa ENE 2.6 km/h 5.1 km/h 76 % 0 mm
22:44 -4.2 °C -10.6 °C 34327.3 hPa NNE 9 km/h 9 km/h 49 % 0 mm
22:45 -4.2 °C -10.6 °C 34327.3 hPa NNE 3.1 km/h   49 % 0 mm
22:50 -4.3 °C -10.6 °C 34327.3 hPa NNE 6 km/h 6 km/h 49 % 0 mm
22:55 -4.3 °C -10.6 °C 34327.3 hPa NE 6 km/h 6 km/h 49 % 0 mm
23:00 -4.3 °C -10.4 °C 34327.3 hPa NE 3.1 km/h 3.1 km/h 50 % 0 mm
23:05 -4.3 °C -10.5 °C 34327.3 hPa Calm     50 % 0 mm
23:10 -4.4 °C -10.6 °C 34327.3 hPa Calm     50 % 0 mm
23:15 -4.4 °C -10.4 °C 34327.3 hPa North 6 km/h 6 km/h 51 % 0 mm
23:20 -4.4 °C -10.4 °C 34327.3 hPa NNE 6 km/h 6 km/h 51 % 0 mm
23:25 -4.4 °C -10.1 °C 34327.3 hPa NE 4.2 km/h 4.2 km/h 53 % 0 mm
23:30 -4.4 °C -10.1 °C 34327.3 hPa NNE 6 km/h 6 km/h 53 % 0 mm
23:35 -4.5 °C -9.7 °C 34327.3 hPa NNE 3.1 km/h   56 % 0 mm
23:40 -4.6 °C -9.6 °C 34327.3 hPa NE 6 km/h 6 km/h 57 % 0 mm
23:45 -4.6 °C -9.4 °C 34327.3 hPa NE 6 km/h 6 km/h 58 % 0 mm
23:50 -4.6 °C -9.3 °C 34327.3 hPa Calm     59 % 0 mm
23:55 -4.7 °C -9.2 °C 34327.3 hPa NE 6 km/h 6 km/h 60 % 0 mm
Meteo Sesrovires
Elogis d' Weather Underground - 2 mb

Guio original per  Jim McMurry - jmcmurry@mwt.net Adaptat per a la plantilla per  Wim van der Kuil - Leuven-Template.eu

Trobareu la nostra informacio del temps tambe a:

Weather Underground

AWEKAS